Time;durP1;ratioP1;P1;durP2;ratioP2;P2;SDS_P1;SDS_P2;PMS_P1;PMS_P2;Temp;Humidity;BMP_temperature;BMP_pressure;BME280_temperature;BME280_humidity;BME280_pressure;Samples;Min_cycle;Max_cycle;Signal;HPM_P1;HPM_P2
2023/06/16 00:00:34;;;;;;;32.70;21.90;;;;;;;12.02;76.72;98533.50;435421;1250;97877;-41
2023/06/16 00:11:00;;;;;;;43.80;26.90;;;;;;;11.82;76.87;98529.48;435290;1250;112326;-42
2023/06/16 00:21:09;;;;;;;31.50;20.60;;;;;;;11.72;77.21;98532.50;435404;1253;109394;-42
2023/06/16 00:31:16;;;;;;;29.20;18.40;;;;;;;11.70;77.23;98523.36;435419;1250;97873;-42
2023/06/16 00:41:24;;;;;;;30.40;16.60;;;;;;;11.59;77.44;98524.72;435393;1253;107321;-44
2023/06/16 00:51:32;;;;;;;21.40;16.40;;;;;;;11.53;77.85;98527.62;435415;1253;97890;-41
2023/06/16 01:01:40;;;;;;;25.70;15.80;;;;;;;11.58;78.02;98519.81;435410;1253;109900;-42
2023/06/16 01:22:06;;;;;;;29.90;19.20;;;;;;;11.50;78.17;98509.98;435589;1253;97012;-44
2023/06/16 01:32:16;;;;;;;23.10;17.40;;;;;;;11.36;78.03;98511.44;435476;1251;111768;-42
2023/06/16 01:42:25;;;;;;;24.80;17.70;;;;;;;11.23;78.15;98505.95;435455;1250;108326;-42
2023/06/16 01:52:33;;;;;;;24.70;16.90;;;;;;;11.13;78.37;98505.19;435523;1253;97871;-43
2023/06/16 02:12:49;;;;;;;26.40;16.10;;;;;;;11.17;78.87;98492.66;435460;1255;97873;-42
2023/06/16 02:22:57;;;;;;;24.00;18.40;;;;;;;11.17;78.84;98490.39;435520;1251;108855;-42
2023/06/16 02:33:04;;;;;;;24.90;17.30;;;;;;;10.99;79.03;98493.49;435448;1249;110500;-43
2023/06/16 02:43:12;;;;;;;24.50;17.90;;;;;;;10.89;78.97;98494.02;435572;1253;97877;-42
2023/06/16 03:03:30;;;;;;;25.20;15.00;;;;;;;10.99;79.15;98490.15;435371;1253;97910;-42
2023/06/16 03:13:38;;;;;;;20.60;14.40;;;;;;;11.45;79.32;98487.54;435440;1253;110957;-42
2023/06/16 03:23:45;;;;;;;19.90;13.70;;;;;;;13.37;78.67;98479.58;435150;1249;409504;-42
2023/06/16 03:33:52;;;;;;;21.40;15.10;;;;;;;15.02;77.26;98485.83;435492;1251;96654;-42
2023/06/16 03:54:05;;;;;;;15.10;12.60;;;;;;;18.06;74.34;98486.16;435662;1253;98001;-42
2023/06/16 04:04:12;;;;;;;17.20;11.50;;;;;;;19.21;72.34;98492.16;435456;1253;111266;-42
2023/06/16 04:14:20;;;;;;;15.10;12.70;;;;;;;20.30;71.13;98501.43;435624;1251;108020;-41
2023/06/16 04:24:30;;;;;;;19.00;11.80;;;;;;;20.82;69.72;98503.48;435645;1250;96661;-41
2023/06/16 04:34:38;;;;;;;17.90;13.50;;;;;;;20.86;68.61;98500.98;435458;1253;110850;-42
2023/06/16 04:44:46;;;;;;;13.90;11.10;;;;;;;21.03;67.85;98501.44;435535;1250;108150;-42
2023/06/16 05:05:02;;;;;;;9.20;7.40;;;;;;;21.81;66.73;98490.62;435513;1251;110761;-42
2023/06/16 05:15:10;;;;;;;19.80;7.90;;;;;;;22.72;66.33;98487.66;435779;1254;108673;-41
2023/06/16 05:25:17;;;;;;;14.50;7.00;;;;;;;23.04;64.98;98490.79;435514;1250;97870;-41
2023/06/16 05:35:23;;;;;;;;;;;;;;;22.92;64.27;98486.91;435505;1253;110156;-42
2023/06/16 05:45:31;;;;;;;13.80;7.80;;;;;;;22.81;63.19;98491.63;435691;1249;109101;-41
2023/06/16 05:55:38;;;;;;;12.80;7.20;;;;;;;22.68;62.71;98486.92;435489;1251;96631;-41
2023/06/16 06:05:47;;;;;;;7.80;7.00;;;;;;;23.11;61.06;98487.07;435572;1253;110464;-42
2023/06/16 06:15:54;;;;;;;17.30;6.90;;;;;;;22.38;60.89;98492.88;435509;1251;107631;-41
2023/06/16 06:26:02;;;;;;;7.10;5.70;;;;;;;22.88;60.58;98494.05;435682;1253;96632;-41
2023/06/16 06:46:16;;;;;;;8.70;7.00;;;;;;;24.41;58.86;98495.25;435609;1252;108087;-42
2023/06/16 06:56:24;;;;;;;5.80;5.10;;;;;;;24.56;57.97;98497.53;435500;1249;97918;-43
2023/06/16 07:06:29;;;;;;;;;;;;;;;24.75;56.07;98491.17;435532;1253;107977;-43
2023/06/16 07:16:36;;;;;;;5.90;5.30;;;;;;;24.29;55.00;98486.98;435569;1251;97853;-42
2023/06/16 07:26:45;;;;;;;10.10;4.70;;;;;;;24.48;54.74;98483.77;435456;1253;110638;-43
2023/06/16 07:36:52;;;;;;;11.10;5.60;;;;;;;24.79;54.33;98486.11;435516;1249;108750;-43
2023/06/16 07:47:00;;;;;;;7.10;5.00;;;;;;;24.47;53.76;98481.69;435517;1253;97639;-44
2023/06/16 07:57:04;;;;;;;;;;;;;;;25.03;53.44;98475.08;435557;1249;110159;-43
2023/06/16 08:07:11;;;;;;;5.50;4.50;;;;;;;24.73;52.87;98479.93;435530;1250;97921;-42
2023/06/16 08:17:19;;;;;;;10.00;5.20;;;;;;;25.26;52.37;98480.52;435399;1250;97057;-43
2023/06/16 08:27:26;;;;;;;7.50;4.40;;;;;;;25.13;50.59;98471.37;435641;1251;111624;-43
2023/06/16 08:37:33;;;;;;;6.40;5.30;;;;;;;25.46;50.30;98470.98;435510;1253;107429;-43
2023/06/16 08:47:42;;;;;;;6.00;4.40;;;;;;;25.63;49.83;98466.58;435523;1253;97851;-44
2023/06/16 08:57:53;;;;;;;8.10;4.80;;;;;;;25.43;49.50;98468.52;435416;1253;110795;-43
2023/06/16 09:08:01;;;;;;;6.40;4.30;;;;;;;24.81;49.51;98465.39;435446;1253;108023;-43
2023/06/16 09:18:11;;;;;;;6.80;4.40;;;;;;;24.51;48.79;98463.15;435397;1253;97873;-42
2023/06/16 09:28:17;;;;;;;;;;;;;;;24.12;49.18;98459.25;435482;1251;110150;-41
2023/06/16 09:38:26;;;;;;;9.10;4.40;;;;;;;24.42;49.81;98452.84;435288;1251;108606;-42
2023/06/16 09:48:33;;;;;;;4.50;4.20;;;;;;;24.76;49.11;98451.54;435420;1251;97857;-43
2023/06/16 09:58:41;;;;;;;5.70;4.50;;;;;;;24.69;48.42;98440.73;435452;1253;110005;-42
2023/06/16 10:08:50;;;;;;;6.70;4.30;;;;;;;24.24;48.46;98439.45;435537;1253;109124;-43
2023/06/16 10:19:02;;;;;;;6.50;5.10;;;;;;;23.72;47.42;98428.46;435408;1250;97185;-43
2023/06/16 10:49:27;;;;;;;4.60;4.00;;;;;;;24.74;46.54;98406.35;435522;1253;97884;-42
2023/06/16 11:20:09;;;;;;;4.90;4.40;;;;;;;25.66;44.93;98390.00;435475;1253;97844;-42
2023/06/16 11:30:14;;;;;;;6.90;4.10;;;;;;;25.40;44.60;98382.52;435287;1253;110515;-43
2023/06/16 11:40:23;;;;;;;5.40;4.20;;;;;;;25.34;45.17;98378.29;435528;1250;107489;-42
2023/06/16 11:50:31;;;;;;;5.60;3.80;;;;;;;25.30;44.52;98367.15;435471;1250;97915;-42
2023/06/16 12:00:39;;;;;;;7.80;4.60;;;;;;;25.40;44.23;98366.66;435519;1251;110851;-42
2023/06/16 12:21:12;;;;;;;5.70;4.30;;;;;;;24.98;43.54;98362.58;435357;1253;97924;-43
2023/06/16 12:31:20;;;;;;;5.30;4.50;;;;;;;24.63;43.13;98360.49;435471;1253;110649;-42
2023/06/16 12:51:37;;;;;;;4.60;4.10;;;;;;;24.83;43.36;98334.74;435496;1254;96590;-41
2023/06/16 13:01:46;;;;;;;5.00;4.10;;;;;;;25.24;43.46;98340.37;435377;1261;110327;-42
2023/06/16 13:11:55;;;;;;;5.40;4.30;;;;;;;25.25;42.42;98334.56;435460;1254;108049;-42
2023/06/16 13:22:03;;;;;;;5.70;4.20;;;;;;;25.60;42.36;98330.88;435459;1253;97919;-42
2023/06/16 13:32:09;;;;;;;6.30;4.10;;;;;;;25.71;41.74;98332.07;435381;1254;107737;-42
2023/06/16 13:42:15;;;;;;;3.50;3.30;;;;;;;25.48;41.74;98325.96;435371;1254;97879;-42
2023/06/16 13:52:23;;;;;;;6.40;4.30;;;;;;;25.51;41.79;98319.02;435401;1253;111926;-41
2023/06/16 14:02:30;;;;;;;4.70;4.30;;;;;;;25.17;42.13;98309.88;435349;1254;108098;-41
2023/06/16 14:12:38;;;;;;;5.00;4.50;;;;;;;24.96;41.89;98302.23;435489;1254;97957;-42
2023/06/16 14:22:45;;;;;;;10.00;5.00;;;;;;;25.16;42.16;98299.86;435352;1253;113742;-42
2023/06/16 14:32:52;;;;;;;7.20;4.30;;;;;;;25.29;42.27;98289.90;435501;1253;110494;-41
2023/06/16 14:43:00;;;;;;;5.90;4.70;;;;;;;25.08;42.08;98278.95;435330;1249;96643;-42
2023/06/16 14:53:07;;;;;;;8.30;5.20;;;;;;;24.74;42.26;98272.59;435542;1254;109778;-43
2023/06/16 15:03:14;;;;;;;4.60;4.00;;;;;;;24.47;42.61;98262.28;435494;1253;107211;-41
2023/06/16 15:13:21;;;;;;;6.60;5.00;;;;;;;24.50;42.73;98255.27;435371;1251;96632;-42
2023/06/16 15:23:28;;;;;;;7.80;5.50;;;;;;;24.54;42.72;98249.78;435003;1254;600998;-42
2023/06/16 15:33:36;;;;;;;5.40;4.80;;;;;;;24.57;42.65;98244.08;435349;1253;107939;-42
2023/06/16 15:53:49;;;;;;;6.70;4.90;;;;;;;24.65;42.59;98241.09;435588;1254;110419;-42
2023/06/16 16:03:56;;;;;;;7.30;5.10;;;;;;;24.62;42.76;98232.77;435489;1254;107517;-41
2023/06/16 16:14:04;;;;;;;8.10;5.40;;;;;;;24.36;42.45;98228.56;435467;1251;97861;-41
2023/06/16 16:24:12;;;;;;;8.60;5.10;;;;;;;24.15;42.86;98228.53;435421;1253;108597;-41
2023/06/16 16:34:19;;;;;;;9.50;5.80;;;;;;;23.77;43.38;98234.09;435568;1253;97881;-41
2023/06/16 16:54:33;;;;;;;9.30;6.00;;;;;;;23.39;44.59;98239.52;435432;1254;107992;-44
2023/06/16 17:04:40;;;;;;;7.20;5.90;;;;;;;23.16;45.25;98248.60;435350;1253;97928;-43
2023/06/16 17:14:47;;;;;;;7.60;6.80;;;;;;;22.89;46.12;98248.80;435506;1251;111677;-43
2023/06/16 17:24:55;;;;;;;7.90;6.00;;;;;;;22.54;47.02;98248.73;435459;1252;107346;-43
2023/06/16 17:35:02;;;;;;;9.40;6.60;;;;;;;22.15;47.87;98244.96;435445;1254;97889;-43
2023/06/16 17:45:10;;;;;;;9.30;7.50;;;;;;;21.87;48.95;98238.81;435539;1254;109447;-43
2023/06/16 17:55:17;;;;;;;14.50;9.30;;;;;;;21.45;49.84;98234.84;435414;1250;106340;-42
2023/06/16 18:05:24;;;;;;;;;;;;;;;20.98;50.56;98239.09;435636;1253;98462;-43
2023/06/16 18:15:32;;;;;;;17.60;8.50;;;;;;;20.56;51.72;98245.33;435471;1253;109987;-43
2023/06/16 18:25:39;;;;;;;13.10;10.20;;;;;;;20.16;52.14;98252.08;435491;1263;108663;-43
2023/06/16 18:35:48;;;;;;;10.30;8.20;;;;;;;19.64;52.45;98256.08;435592;1251;97871;-42
2023/06/16 18:56:02;;;;;;;8.90;5.60;;;;;;;18.95;52.92;98265.42;435555;1251;107839;-42
2023/06/16 19:06:10;;;;;;;5.80;5.20;;;;;;;18.69;53.26;98276.90;435565;1253;97871;-44
2023/06/16 19:16:19;;;;;;;6.80;5.00;;;;;;;18.44;53.77;98280.55;435365;1253;110012;-42
2023/06/16 19:26:27;;;;;;;9.60;5.90;;;;;;;18.28;54.17;98287.30;435486;1253;107539;-42
2023/06/16 19:46:42;;;;;;;10.70;5.50;;;;;;;18.01;55.41;98287.97;435629;1250;109657;-42
2023/06/16 19:56:51;;;;;;;6.40;5.90;;;;;;;17.92;56.04;98294.80;435650;1250;108817;-42
2023/06/16 20:07:00;;;;;;;7.10;6.00;;;;;;;17.85;56.73;98288.70;435515;1249;97848;-43
2023/06/16 20:17:08;;;;;;;4.90;4.50;;;;;;;17.85;57.41;98279.75;435448;1251;110341;-43
2023/06/16 20:27:14;;;;;;;6.20;5.40;;;;;;;17.90;57.18;98279.16;435537;1251;107485;-42
2023/06/16 20:37:23;;;;;;;8.00;6.20;;;;;;;17.94;57.23;98279.33;435692;1251;98493;-43
2023/06/16 20:47:29;;;;;;;;;;;;;;;17.99;57.57;98270.34;435579;1253;107008;-43
2023/06/16 20:57:37;;;;;;;7.60;6.90;;;;;;;17.99;57.48;98270.13;435785;1249;97874;-41
2023/06/16 21:07:44;;;;;;;10.20;8.00;;;;;;;17.91;57.72;98269.89;435539;1250;112332;-42
2023/06/16 21:17:52;;;;;;;9.20;8.30;;;;;;;17.79;57.95;98271.69;435750;1251;107837;-41
2023/06/16 21:28:00;;;;;;;10.80;7.60;;;;;;;17.65;58.50;98270.33;435452;1253;96897;-42
2023/06/16 21:38:07;;;;;;;10.50;8.20;;;;;;;17.59;58.92;98274.19;435542;1253;108546;-41
2023/06/16 21:48:17;;;;;;;9.50;7.60;;;;;;;17.50;59.40;98270.27;435690;1250;97180;-41
2023/06/16 21:58:25;;;;;;;10.90;9.00;;;;;;;17.29;59.96;98269.30;435632;1250;110506;-41
2023/06/16 22:08:32;;;;;;;10.10;9.00;;;;;;;17.02;60.47;98264.30;435504;1249;109489;-42
2023/06/16 22:18:39;;;;;;;11.10;8.30;;;;;;;16.81;60.88;98261.79;435495;1253;98005;-43
2023/06/16 22:28:46;;;;;;;13.40;10.60;;;;;;;16.72;61.36;98253.96;435626;1253;110472;-43
2023/06/16 22:38:54;;;;;;;24.10;10.80;;;;;;;16.57;61.66;98244.91;435478;1251;107939;-44
2023/06/16 22:49:01;;;;;;;13.70;11.50;;;;;;;16.40;62.21;98244.87;435523;1253;97165;-43
2023/06/16 22:59:08;;;;;;;11.80;9.60;;;;;;;16.30;62.52;98244.80;435553;1253;110447;-44
2023/06/16 23:09:16;;;;;;;16.00;9.50;;;;;;;16.19;62.74;98242.95;435645;1253;108429;-41
2023/06/16 23:19:23;;;;;;;15.10;11.00;;;;;;;16.06;63.26;98238.22;435587;1251;97138;-41
2023/06/16 23:29:33;;;;;;;15.30;11.80;;;;;;;15.77;63.57;98242.40;435547;1251;109833;-43
2023/06/16 23:39:41;;;;;;;10.40;9.30;;;;;;;15.55;64.14;98241.33;435534;1253;107529;-43
2023/06/16 23:49:48;;;;;;;12.30;10.30;;;;;;;15.36;64.62;98236.95;435540;1250;97223;-43
2023/06/16 23:59:55;;;;;;;14.60;10.00;;;;;;;15.18;65.00;98237.98;435431;1253;107838;-43
